sensor_id;sensor_type;location;lat;lon;timestamp;pressure;altitude;pressure_sealevel;temperature;humidity
38718;BME280;24468;52.128;9.278;2022-09-09T00:01:17;100020.03;;;17.46;100.00
38718;BME280;24468;52.128;9.278;2022-09-09T00:03:57;100012.47;;;17.38;100.00
38718;BME280;24468;52.128;9.278;2022-09-09T00:06:30;100006.59;;;17.88;100.00
38718;BME280;24468;52.128;9.278;2022-09-09T00:09:19;100011.16;;;17.98;100.00
38718;BME280;24468;52.128;9.278;2022-09-09T00:14:59;100003.16;;;17.86;100.00
38718;BME280;24468;52.128;9.278;2022-09-09T00:17:57;100001.91;;;17.90;100.00
38718;BME280;24468;52.128;9.278;2022-09-09T00:20:39;100008.88;;;18.15;100.00
38718;BME280;24468;52.128;9.278;2022-09-09T00:23:32;100002.81;;;18.11;100.00
38718;BME280;24468;52.128;9.278;2022-09-09T00:26:35;99999.88;;;18.03;100.00
38718;BME280;24468;52.128;9.278;2022-09-09T00:31:47;100007.59;;;17.98;100.00
38718;BME280;24468;52.128;9.278;2022-09-09T00:34:20;100009.03;;;18.13;100.00
38718;BME280;24468;52.128;9.278;2022-09-09T00:36:49;99991.44;;;18.59;100.00
38718;BME280;24468;52.128;9.278;2022-09-09T00:39:49;99999.09;;;18.44;100.00
38718;BME280;24468;52.128;9.278;2022-09-09T00:43:04;99986.47;;;18.85;100.00
38718;BME280;24468;52.128;9.278;2022-09-09T00:48:12;99996.53;;;18.32;100.00
38718;BME280;24468;52.128;9.278;2022-09-09T00:50:56;99990.84;;;18.23;100.00
38718;BME280;24468;52.128;9.278;2022-09-09T00:53:55;99992.44;;;18.05;100.00
38718;BME280;24468;52.128;9.278;2022-09-09T00:56:39;99989.72;;;18.05;100.00
38718;BME280;24468;52.128;9.278;2022-09-09T00:59:24;99988.34;;;18.32;100.00
38718;BME280;24468;52.128;9.278;2022-09-09T01:01:53;99989.19;;;18.85;100.00
38718;BME280;24468;52.128;9.278;2022-09-09T01:04:33;99979.66;;;18.80;100.00
38718;BME280;24468;52.128;9.278;2022-09-09T01:07:17;99988.69;;;18.06;100.00
38718;BME280;24468;52.128;9.278;2022-09-09T01:10:01;99996.09;;;17.83;100.00
38718;BME280;24468;52.128;9.278;2022-09-09T01:12:44;100002.28;;;17.63;100.00
38718;BME280;24468;52.128;9.278;2022-09-09T01:15:21;99998.97;;;17.59;100.00
38718;BME280;24468;52.128;9.278;2022-09-09T01:18:11;99989.81;;;17.26;100.00
38718;BME280;24468;52.128;9.278;2022-09-09T01:26:43;99995.50;;;16.89;100.00
38718;BME280;24468;52.128;9.278;2022-09-09T01:29:17;99995.50;;;16.89;100.00
38718;BME280;24468;52.128;9.278;2022-09-09T01:32:37;99993.75;;;16.77;100.00
38718;BME280;24468;52.128;9.278;2022-09-09T01:34:50;100002.22;;;16.73;100.00
38718;BME280;24468;52.128;9.278;2022-09-09T01:37:16;100004.22;;;16.71;100.00
38718;BME280;24468;52.128;9.278;2022-09-09T01:39:43;100001.63;;;16.69;100.00
38718;BME280;24468;52.128;9.278;2022-09-09T01:42:13;100017.97;;;16.69;100.00
38718;BME280;24468;52.128;9.278;2022-09-09T01:44:40;100015.22;;;16.69;100.00
38718;BME280;24468;52.128;9.278;2022-09-09T01:47:08;100012.69;;;16.79;100.00
38718;BME280;24468;52.128;9.278;2022-09-09T01:49:34;100009.22;;;16.77;100.00
38718;BME280;24468;52.128;9.278;2022-09-09T01:52:00;100013.25;;;16.60;100.00
38718;BME280;24468;52.128;9.278;2022-09-09T01:54:29;100010.75;;;16.57;100.00
38718;BME280;24468;52.128;9.278;2022-09-09T02:05:37;100013.75;;;17.34;100.00
38718;BME280;24468;52.128;9.278;2022-09-09T02:08:18;100012.56;;;16.92;100.00
38718;BME280;24468;52.128;9.278;2022-09-09T02:10:57;100015.81;;;16.97;100.00
38718;BME280;24468;52.128;9.278;2022-09-09T02:13:25;100002.84;;;17.23;100.00
38718;BME280;24468;52.128;9.278;2022-09-09T02:16:08;100010.19;;;17.77;100.00
38718;BME280;24468;52.128;9.278;2022-09-09T02:18:55;100014.31;;;17.60;100.00
38718;BME280;24468;52.128;9.278;2022-09-09T02:21:23;100001.91;;;17.67;100.00
38718;BME280;24468;52.128;9.278;2022-09-09T02:23:50;100003.69;;;17.46;100.00
38718;BME280;24468;52.128;9.278;2022-09-09T02:26:19;100000.28;;;17.87;100.00
38718;BME280;24468;52.128;9.278;2022-09-09T02:28:51;100008.03;;;17.48;100.00
38718;BME280;24468;52.128;9.278;2022-09-09T02:31:22;100008.78;;;17.50;100.00
38718;BME280;24468;52.128;9.278;2022-09-09T02:33:58;100013.72;;;17.45;100.00
38718;BME280;24468;52.128;9.278;2022-09-09T02:36:29;100013.34;;;17.61;100.00
38718;BME280;24468;52.128;9.278;2022-09-09T02:38:56;100009.09;;;17.80;100.00
38718;BME280;24468;52.128;9.278;2022-09-09T02:41:28;100003.16;;;17.86;100.00
38718;BME280;24468;52.128;9.278;2022-09-09T02:43:56;100004.50;;;17.69;100.00
38718;BME280;24468;52.128;9.278;2022-09-09T02:49:21;100004.91;;;17.64;100.00
38718;BME280;24468;52.128;9.278;2022-09-09T02:52:12;100016.47;;;17.45;100.00
38718;BME280;24468;52.128;9.278;2022-09-09T02:54:41;100016.31;;;17.69;100.00
38718;BME280;24468;52.128;9.278;2022-09-09T02:57:27;100026.63;;;17.32;100.00
38718;BME280;24468;52.128;9.278;2022-09-09T02:59:58;100022.88;;;17.33;100.00
38718;BME280;24468;52.128;9.278;2022-09-09T03:02:24;100022.25;;;17.52;100.00
38718;BME280;24468;52.128;9.278;2022-09-09T03:04:49;100017.31;;;17.46;100.00
38718;BME280;24468;52.128;9.278;2022-09-09T03:07:19;100016.97;;;17.28;100.00
38718;BME280;24468;52.128;9.278;2022-09-09T03:09:44;100014.34;;;17.15;100.00
38718;BME280;24468;52.128;9.278;2022-09-09T03:12:11;100017.44;;;17.10;100.00
38718;BME280;24468;52.128;9.278;2022-09-09T03:14:37;100017.06;;;17.15;100.00
38718;BME280;24468;52.128;9.278;2022-09-09T03:17:05;100014.50;;;17.36;100.00
38718;BME280;24468;52.128;9.278;2022-09-09T03:19:31;100018.44;;;17.09;100.00
38718;BME280;24468;52.128;9.278;2022-09-09T03:21:57;100026.97;;;17.05;100.00
38718;BME280;24468;52.128;9.278;2022-09-09T03:24:24;100030.69;;;16.93;100.00
38718;BME280;24468;52.128;9.278;2022-09-09T03:26:50;100016.72;;;17.42;100.00
38718;BME280;24468;52.128;9.278;2022-09-09T03:29:16;100022.03;;;17.10;100.00
38718;BME280;24468;52.128;9.278;2022-09-09T03:31:43;100022.53;;;17.38;100.00
38718;BME280;24468;52.128;9.278;2022-09-09T03:34:10;100017.94;;;17.27;100.00
38718;BME280;24468;52.128;9.278;2022-09-09T03:36:36;100025.88;;;17.19;100.00
38718;BME280;24468;52.128;9.278;2022-09-09T03:39:02;100023.28;;;17.17;100.00
38718;BME280;24468;52.128;9.278;2022-09-09T03:41:29;100015.56;;;17.00;100.00
38718;BME280;24468;52.128;9.278;2022-09-09T03:43:54;100008.28;;;17.00;100.00
38718;BME280;24468;52.128;9.278;2022-09-09T03:46:22;100011.09;;;16.87;100.00
38718;BME280;24468;52.128;9.278;2022-09-09T03:48:49;100008.13;;;17.02;100.00
38718;BME280;24468;52.128;9.278;2022-09-09T03:51:14;100007.38;;;17.00;100.00
38718;BME280;24468;52.128;9.278;2022-09-09T03:53:41;100012.22;;;17.07;100.00
38718;BME280;24468;52.128;9.278;2022-09-09T03:56:08;100012.63;;;17.14;100.00
38718;BME280;24468;52.128;9.278;2022-09-09T03:58:36;100014.47;;;17.14;100.00
38718;BME280;24468;52.128;9.278;2022-09-09T04:01:12;100014.09;;;16.96;100.00
38718;BME280;24468;52.128;9.278;2022-09-09T04:03:42;100020.91;;;17.24;100.00
38718;BME280;24468;52.128;9.278;2022-09-09T04:06:10;100014.94;;;16.96;100.00
38718;BME280;24468;52.128;9.278;2022-09-09T04:08:37;100021.28;;;17.08;100.00
38718;BME280;24468;52.128;9.278;2022-09-09T04:11:04;100019.66;;;17.05;100.00
38718;BME280;24468;52.128;9.278;2022-09-09T04:13:33;100014.59;;;17.01;100.00
38718;BME280;24468;52.128;9.278;2022-09-09T04:16:00;100013.34;;;17.27;100.00
38718;BME280;24468;52.128;9.278;2022-09-09T04:18:27;100011.63;;;17.38;100.00
38718;BME280;24468;52.128;9.278;2022-09-09T04:20:56;100007.13;;;17.70;100.00
38718;BME280;24468;52.128;9.278;2022-09-09T04:23:24;100005.41;;;17.69;100.00
38718;BME280;24468;52.128;9.278;2022-09-09T04:25:53;100004.69;;;17.45;100.00
38718;BME280;24468;52.128;9.278;2022-09-09T04:28:22;100011.59;;;17.49;100.00
38718;BME280;24468;52.128;9.278;2022-09-09T04:30:48;100002.56;;;17.48;100.00
38718;BME280;24468;52.128;9.278;2022-09-09T04:33:14;99998.41;;;17.88;100.00
38718;BME280;24468;52.128;9.278;2022-09-09T04:35:48;100000.91;;;17.68;100.00
38718;BME280;24468;52.128;9.278;2022-09-09T04:38:15;100009.47;;;17.86;100.00
38718;BME280;24468;52.128;9.278;2022-09-09T04:40:46;100002.03;;;17.66;100.00
38718;BME280;24468;52.128;9.278;2022-09-09T04:43:13;100009.34;;;17.76;100.00
38718;BME280;24468;52.128;9.278;2022-09-09T04:45:40;100010.88;;;17.81;100.00
38718;BME280;24468;52.128;9.278;2022-09-09T04:48:06;100012.13;;;17.43;100.00
38718;BME280;24468;52.128;9.278;2022-09-09T04:50:33;100025.16;;;17.28;100.00
38718;BME280;24468;52.128;9.278;2022-09-09T04:53:03;100028.72;;;17.51;100.00
38718;BME280;24468;52.128;9.278;2022-09-09T04:55:30;100030.56;;;17.05;100.00
38718;BME280;24468;52.128;9.278;2022-09-09T04:57:56;100039.13;;;17.01;100.00
38718;BME280;24468;52.128;9.278;2022-09-09T05:00:23;100034.94;;;17.30;100.00
38718;BME280;24468;52.128;9.278;2022-09-09T05:02:49;100038.63;;;17.07;100.00
38718;BME280;24468;52.128;9.278;2022-09-09T05:05:15;100036.63;;;16.98;100.00
38718;BME280;24468;52.128;9.278;2022-09-09T05:07:40;100040.59;;;17.05;100.00
38718;BME280;24468;52.128;9.278;2022-09-09T05:10:07;100045.09;;;17.17;100.00
38718;BME280;24468;52.128;9.278;2022-09-09T05:12:33;100044.22;;;17.39;100.00
38718;BME280;24468;52.128;9.278;2022-09-09T05:14:58;100043.09;;;17.53;100.00
38718;BME280;24468;52.128;9.278;2022-09-09T05:17:24;100036.66;;;17.54;100.00
38718;BME280;24468;52.128;9.278;2022-09-09T05:19:49;100040.59;;;17.95;100.00
38718;BME280;24468;52.128;9.278;2022-09-09T05:22:19;100043.47;;;18.26;100.00
38718;BME280;24468;52.128;9.278;2022-09-09T05:24:46;100036.63;;;18.63;100.00
38718;BME280;24468;52.128;9.278;2022-09-09T05:27:11;100048.81;;;18.27;100.00
38718;BME280;24468;52.128;9.278;2022-09-09T05:29:38;100035.00;;;18.61;100.00
38718;BME280;24468;52.128;9.278;2022-09-09T05:32:04;100043.16;;;18.40;100.00
38718;BME280;24468;52.128;9.278;2022-09-09T05:34:29;100041.56;;;18.05;100.00
38718;BME280;24468;52.128;9.278;2022-09-09T05:36:55;100052.13;;;17.87;100.00
38718;BME280;24468;52.128;9.278;2022-09-09T05:39:21;100053.66;;;18.23;100.00
38718;BME280;24468;52.128;9.278;2022-09-09T05:41:46;100053.13;;;18.41;100.00
38718;BME280;24468;52.128;9.278;2022-09-09T05:44:12;100056.78;;;18.19;100.00
38718;BME280;24468;52.128;9.278;2022-09-09T05:46:38;100057.19;;;18.03;100.00
38718;BME280;24468;52.128;9.278;2022-09-09T05:49:04;100064.41;;;17.70;100.00
38718;BME280;24468;52.128;9.278;2022-09-09T05:51:31;100062.06;;;17.43;100.00
38718;BME280;24468;52.128;9.278;2022-09-09T05:53:57;100057.97;;;17.15;100.00
38718;BME280;24468;52.128;9.278;2022-09-09T05:56:28;100057.97;;;17.60;100.00
38718;BME280;24468;52.128;9.278;2022-09-09T05:58:55;100049.47;;;18.19;100.00
38718;BME280;24468;52.128;9.278;2022-09-09T06:03:49;100051.63;;;18.37;100.00
38718;BME280;24468;52.128;9.278;2022-09-09T06:06:18;100042.91;;;18.11;100.00
38718;BME280;24468;52.128;9.278;2022-09-09T06:08:46;100041.16;;;18.10;100.00
38718;BME280;24468;52.128;9.278;2022-09-09T06:11:17;100043.00;;;18.20;100.00
38718;BME280;24468;52.128;9.278;2022-09-09T06:13:43;100043.31;;;18.38;100.00
38718;BME280;24468;52.128;9.278;2022-09-09T06:16:11;100044.50;;;18.45;100.00
38718;BME280;24468;52.128;9.278;2022-09-09T06:18:40;100040.69;;;18.69;100.00
38718;BME280;24468;52.128;9.278;2022-09-09T06:21:11;100036.34;;;18.66;100.00
38718;BME280;24468;52.128;9.278;2022-09-09T06:23:40;100035.44;;;18.77;100.00
38718;BME280;24468;52.128;9.278;2022-09-09T06:28:46;100034.72;;;18.75;100.00
38718;BME280;24468;52.128;9.278;2022-09-09T06:31:15;100037.56;;;18.74;100.00
38718;BME280;24468;52.128;9.278;2022-09-09T06:33:43;100033.72;;;18.76;100.00
38718;BME280;24468;52.128;9.278;2022-09-09T06:36:15;100038.59;;;18.94;100.00
38718;BME280;24468;52.128;9.278;2022-09-09T06:38:42;100042.78;;;18.77;100.00
38718;BME280;24468;52.128;9.278;2022-09-09T06:41:09;100032.44;;;19.01;100.00
38718;BME280;24468;52.128;9.278;2022-09-09T06:43:35;100035.31;;;19.00;100.00
38718;BME280;24468;52.128;9.278;2022-09-09T06:46:07;100047.13;;;18.79;100.00
38718;BME280;24468;52.128;9.278;2022-09-09T06:48:33;100042.88;;;18.54;100.00
38718;BME280;24468;52.128;9.278;2022-09-09T06:51:20;100035.28;;;18.26;100.00
38718;BME280;24468;52.128;9.278;2022-09-09T06:53:47;100030.59;;;18.70;100.00
38718;BME280;24468;52.128;9.278;2022-09-09T06:56:48;100029.81;;;19.21;100.00
38718;BME280;24468;52.128;9.278;2022-09-09T06:59:15;100027.53;;;19.57;100.00
38718;BME280;24468;52.128;9.278;2022-09-09T07:01:44;100034.31;;;19.62;100.00
38718;BME280;24468;52.128;9.278;2022-09-09T07:04:10;100034.81;;;19.77;100.00
38718;BME280;24468;52.128;9.278;2022-09-09T07:06:42;100031.31;;;20.06;100.00
38718;BME280;24468;52.128;9.278;2022-09-09T07:09:14;100030.47;;;20.25;100.00
38718;BME280;24468;52.128;9.278;2022-09-09T07:11:47;100023.53;;;20.40;100.00
38718;BME280;24468;52.128;9.278;2022-09-09T07:14:13;100026.88;;;20.82;100.00
38718;BME280;24468;52.128;9.278;2022-09-09T07:16:43;100030.47;;;20.54;100.00
38718;BME280;24468;52.128;9.278;2022-09-09T07:19:11;100038.97;;;20.31;100.00
38718;BME280;24468;52.128;9.278;2022-09-09T07:21:37;100033.03;;;20.94;100.00
38718;BME280;24468;52.128;9.278;2022-09-09T07:24:03;100033.59;;;20.98;100.00
38718;BME280;24468;52.128;9.278;2022-09-09T07:26:30;100027.22;;;21.17;100.00
38718;BME280;24468;52.128;9.278;2022-09-09T07:28:56;100030.88;;;20.98;100.00
38718;BME280;24468;52.128;9.278;2022-09-09T07:31:48;100030.72;;;20.90;100.00
38718;BME280;24468;52.128;9.278;2022-09-09T07:34:14;100032.63;;;20.99;100.00
38718;BME280;24468;52.128;9.278;2022-09-09T07:36:40;100032.75;;;21.07;100.00
38718;BME280;24468;52.128;9.278;2022-09-09T07:39:11;100032.25;;;21.21;100.00
38718;BME280;24468;52.128;9.278;2022-09-09T07:41:45;100036.91;;;21.11;100.00
38718;BME280;24468;52.128;9.278;2022-09-09T07:44:22;100033.59;;;20.98;100.00
38718;BME280;24468;52.128;9.278;2022-09-09T07:46:48;100037.97;;;20.81;100.00
38718;BME280;24468;52.128;9.278;2022-09-09T07:49:14;100043.41;;;21.00;100.00
38718;BME280;24468;52.128;9.278;2022-09-09T07:51:44;100041.94;;;21.25;100.00
38718;BME280;24468;52.128;9.278;2022-09-09T07:54:13;100037.69;;;20.64;100.00
38718;BME280;24468;52.128;9.278;2022-09-09T07:56:39;100037.09;;;20.41;100.00
38718;BME280;24468;52.128;9.278;2022-09-09T07:59:06;100040.88;;;20.60;100.00
38718;BME280;24468;52.128;9.278;2022-09-09T08:01:37;100034.16;;;21.11;100.00
38718;BME280;24468;52.128;9.278;2022-09-09T08:04:15;100038.34;;;21.05;100.00
38718;BME280;24468;52.128;9.278;2022-09-09T08:06:54;100041.09;;;21.05;100.00
38718;BME280;24468;52.128;9.278;2022-09-09T08:09:20;100039.94;;;21.18;100.00
38718;BME280;24468;52.128;9.278;2022-09-09T08:11:47;100042.25;;;21.13;100.00
38718;BME280;24468;52.128;9.278;2022-09-09T08:14:13;100040.97;;;21.07;100.00
38718;BME280;24468;52.128;9.278;2022-09-09T08:16:45;100051.06;;;21.06;100.00
38718;BME280;24468;52.128;9.278;2022-09-09T08:19:12;100045.63;;;21.44;100.00
38718;BME280;24468;52.128;9.278;2022-09-09T08:21:39;100046.72;;;21.61;100.00
38718;BME280;24468;52.128;9.278;2022-09-09T08:24:07;100047.53;;;21.98;100.00
38718;BME280;24468;52.128;9.278;2022-09-09T08:26:40;100048.19;;;21.83;100.00
38718;BME280;24468;52.128;9.278;2022-09-09T08:29:08;100046.41;;;21.64;100.00
38718;BME280;24468;52.128;9.278;2022-09-09T08:31:44;100046.38;;;21.73;100.00
38718;BME280;24468;52.128;9.278;2022-09-09T08:34:11;100043.09;;;21.97;100.00
38718;BME280;24468;52.128;9.278;2022-09-09T08:36:40;100042.31;;;22.33;100.00
38718;BME280;24468;52.128;9.278;2022-09-09T08:39:09;100052.03;;;22.45;100.00
38718;BME280;24468;52.128;9.278;2022-09-09T08:50:34;100061.38;;;22.70;100.00
38718;BME280;24468;52.128;9.278;2022-09-09T08:53:22;100062.97;;;22.55;100.00
38718;BME280;24468;52.128;9.278;2022-09-09T08:55:58;100065.94;;;22.79;100.00
38718;BME280;24468;52.128;9.278;2022-09-09T08:58:33;100068.28;;;22.56;100.00
38718;BME280;24468;52.128;9.278;2022-09-09T09:12:02;100059.19;;;23.70;98.40
38718;BME280;24468;52.128;9.278;2022-09-09T09:14:30;100061.91;;;23.36;94.21
38718;BME280;24468;52.128;9.278;2022-09-09T09:17:19;100064.06;;;23.76;96.47
38718;BME280;24468;52.128;9.278;2022-09-09T09:19:47;100064.66;;;23.96;93.13
38718;BME280;24468;52.128;9.278;2022-09-09T09:22:34;100061.00;;;23.61;92.12
38718;BME280;24468;52.128;9.278;2022-09-09T09:25:50;100072.22;;;23.07;100.00
38718;BME280;24468;52.128;9.278;2022-09-09T09:28:15;100068.03;;;23.03;98.77
38718;BME280;24468;52.128;9.278;2022-09-09T09:30:49;100060.50;;;23.05;97.23
38718;BME280;24468;52.128;9.278;2022-09-09T09:33:25;100067.53;;;23.26;96.48
38718;BME280;24468;52.128;9.278;2022-09-09T09:35:52;100056.06;;;23.39;95.97
38718;BME280;24468;52.128;9.278;2022-09-09T09:38:25;100064.72;;;23.18;97.15
38718;BME280;24468;52.128;9.278;2022-09-09T09:40:57;100058.84;;;22.59;100.00
38718;BME280;24468;52.128;9.278;2022-09-09T09:43:37;100056.25;;;22.93;98.58
38718;BME280;24468;52.128;9.278;2022-09-09T09:46:05;100061.22;;;22.72;95.84
38718;BME280;24468;52.128;9.278;2022-09-09T09:48:43;100049.06;;;22.38;100.00
38718;BME280;24468;52.128;9.278;2022-09-09T09:51:14;100045.22;;;22.49;100.00
38718;BME280;24468;52.128;9.278;2022-09-09T09:53:42;100046.03;;;23.03;97.93
38718;BME280;24468;52.128;9.278;2022-09-09T09:56:12;100038.06;;;23.18;96.33
38718;BME280;24468;52.128;9.278;2022-09-09T10:01:24;100049.50;;;23.05;96.39
38718;BME280;24468;52.128;9.278;2022-09-09T10:03:53;100043.88;;;23.41;95.93
38718;BME280;24468;52.128;9.278;2022-09-09T10:06:34;100045.44;;;23.44;97.34
38718;BME280;24468;52.128;9.278;2022-09-09T10:09:01;100040.34;;;23.83;93.53
38718;BME280;24468;52.128;9.278;2022-09-09T10:14:48;100045.44;;;24.21;94.75
38718;BME280;24468;52.128;9.278;2022-09-09T10:26:16;100026.75;;;23.90;94.53
38718;BME280;24468;52.128;9.278;2022-09-09T10:35:09;100038.38;;;23.41;98.80
38718;BME280;24468;52.128;9.278;2022-09-09T10:38:10;100045.84;;;23.57;96.33
38718;BME280;24468;52.128;9.278;2022-09-09T10:40:46;100047.66;;;23.14;99.94
38718;BME280;24468;52.128;9.278;2022-09-09T10:46:45;100043.06;;;23.49;98.80
38718;BME280;24468;52.128;9.278;2022-09-09T10:52:04;100041.81;;;22.19;100.00
38718;BME280;24468;52.128;9.278;2022-09-09T10:57:50;100048.09;;;22.48;100.00
38718;BME280;24468;52.128;9.278;2022-09-09T11:00:47;100042.22;;;22.25;96.90
38718;BME280;24468;52.128;9.278;2022-09-09T11:03:25;100044.25;;;22.40;95.97
38718;BME280;24468;52.128;9.278;2022-09-09T11:05:55;100046.69;;;22.61;96.18
38718;BME280;24468;52.128;9.278;2022-09-09T11:08:28;100049.69;;;22.68;92.39
38718;BME280;24468;52.128;9.278;2022-09-09T11:13:38;100048.56;;;21.97;100.00
38718;BME280;24468;52.128;9.278;2022-09-09T11:19:36;100060.81;;;22.03;100.00
38718;BME280;24468;52.128;9.278;2022-09-09T11:22:30;100055.09;;;22.96;97.78
38718;BME280;24468;52.128;9.278;2022-09-09T11:36:09;100041.06;;;24.60;87.66
38718;BME280;24468;52.128;9.278;2022-09-09T11:38:47;100043.94;;;24.42;87.81
38718;BME280;24468;52.128;9.278;2022-09-09T11:41:16;100037.06;;;24.38;87.71
38718;BME280;24468;52.128;9.278;2022-09-09T11:43:50;100048.78;;;23.90;92.06
38718;BME280;24468;52.128;9.278;2022-09-09T11:46:22;100041.94;;;24.02;93.11
38718;BME280;24468;52.128;9.278;2022-09-09T11:49:01;100043.78;;;23.25;100.00
38718;BME280;24468;52.128;9.278;2022-09-09T11:51:30;100054.59;;;23.00;100.00
38718;BME280;24468;52.128;9.278;2022-09-09T11:56:46;100039.25;;;24.27;98.56
38718;BME280;24468;52.128;9.278;2022-09-09T11:59:27;100028.41;;;24.33;92.45
38718;BME280;24468;52.128;9.278;2022-09-09T12:02:19;100021.06;;;23.91;97.34
38718;BME280;24468;52.128;9.278;2022-09-09T12:05:09;100015.22;;;24.61;88.99
38718;BME280;24468;52.128;9.278;2022-09-09T12:07:41;100014.50;;;24.59;87.26
38718;BME280;24468;52.128;9.278;2022-09-09T12:10:30;100016.25;;;24.77;88.30
38718;BME280;24468;52.128;9.278;2022-09-09T12:13:18;100014.69;;;24.74;89.17
38718;BME280;24468;52.128;9.278;2022-09-09T12:15:56;100007.91;;;24.19;90.91
38718;BME280;24468;52.128;9.278;2022-09-09T12:18:25;100006.22;;;23.16;100.00
38718;BME280;24468;52.128;9.278;2022-09-09T12:21:34;100014.34;;;23.94;96.02
38718;BME280;24468;52.128;9.278;2022-09-09T12:24:11;100007.19;;;23.67;100.00
38718;BME280;24468;52.128;9.278;2022-09-09T12:27:24;100018.63;;;23.88;99.08
38718;BME280;24468;52.128;9.278;2022-09-09T12:30:04;100024.09;;;24.23;95.40
38718;BME280;24468;52.128;9.278;2022-09-09T12:32:33;100038.38;;;24.26;94.61
38718;BME280;24468;52.128;9.278;2022-09-09T12:35:13;100009.53;;;23.53;100.00
38718;BME280;24468;52.128;9.278;2022-09-09T12:38:01;100012.72;;;23.41;100.00
38718;BME280;24468;52.128;9.278;2022-09-09T12:40:31;100017.72;;;23.71;100.00
38718;BME280;24468;52.128;9.278;2022-09-09T12:42:58;100017.56;;;23.13;100.00
38718;BME280;24468;52.128;9.278;2022-09-09T12:45:29;100019.97;;;22.72;100.00
38718;BME280;24468;52.128;9.278;2022-09-09T12:48:08;100016.56;;;22.06;100.00
38718;BME280;24468;52.128;9.278;2022-09-09T12:50:49;100025.34;;;21.92;100.00
38718;BME280;24468;52.128;9.278;2022-09-09T12:56:04;100026.41;;;22.27;100.00
38718;BME280;24468;52.128;9.278;2022-09-09T12:58:33;100028.16;;;22.46;100.00
38718;BME280;24468;52.128;9.278;2022-09-09T13:01:01;100025.47;;;22.72;100.00
38718;BME280;24468;52.128;9.278;2022-09-09T13:03:30;100022.34;;;22.31;100.00
38718;BME280;24468;52.128;9.278;2022-09-09T13:06:10;100025.63;;;22.34;100.00
38718;BME280;24468;52.128;9.278;2022-09-09T13:08:37;100024.81;;;22.06;100.00
38718;BME280;24468;52.128;9.278;2022-09-09T13:11:10;100017.56;;;21.60;100.00
38718;BME280;24468;52.128;9.278;2022-09-09T13:13:41;100019.06;;;22.00;100.00
38718;BME280;24468;52.128;9.278;2022-09-09T13:16:29;100020.94;;;21.99;100.00
38718;BME280;24468;52.128;9.278;2022-09-09T13:18:59;100019.25;;;22.16;100.00
38718;BME280;24468;52.128;9.278;2022-09-09T13:21:38;100017.66;;;23.03;100.00
38718;BME280;24468;52.128;9.278;2022-09-09T13:24:21;100007.78;;;22.74;100.00
38718;BME280;24468;52.128;9.278;2022-09-09T13:27:28;100009.81;;;22.90;100.00
38718;BME280;24468;52.128;9.278;2022-09-09T13:29:55;100003.66;;;22.52;100.00
38718;BME280;24468;52.128;9.278;2022-09-09T13:32:24;100003.41;;;23.07;100.00
38718;BME280;24468;52.128;9.278;2022-09-09T13:34:55;99998.50;;;23.88;100.00
38718;BME280;24468;52.128;9.278;2022-09-09T13:37:37;99985.59;;;23.88;100.00
38718;BME280;24468;52.128;9.278;2022-09-09T13:40:05;99977.50;;;23.87;100.00
38718;BME280;24468;52.128;9.278;2022-09-09T13:42:34;99982.03;;;24.12;100.00
38718;BME280;24468;52.128;9.278;2022-09-09T13:45:03;99983.50;;;24.66;100.00
38718;BME280;24468;52.128;9.278;2022-09-09T13:47:34;99980.69;;;24.90;95.17
38718;BME280;24468;52.128;9.278;2022-09-09T13:50:30;99958.78;;;24.97;96.30
38718;BME280;24468;52.128;9.278;2022-09-09T13:52:58;99967.94;;;24.97;97.93
38718;BME280;24468;52.128;9.278;2022-09-09T13:55:26;99960.34;;;25.16;92.63
38718;BME280;24468;52.128;9.278;2022-09-09T13:57:59;99968.44;;;25.01;94.56
38718;BME280;24468;52.128;9.278;2022-09-09T14:00:28;99959.16;;;24.28;100.00
38718;BME280;24468;52.128;9.278;2022-09-09T14:02:54;99971.22;;;24.19;100.00
38718;BME280;24468;52.128;9.278;2022-09-09T14:05:21;99973.25;;;24.09;100.00
38718;BME280;24468;52.128;9.278;2022-09-09T14:07:48;99973.94;;;24.03;100.00
38718;BME280;24468;52.128;9.278;2022-09-09T14:10:14;99971.75;;;23.72;100.00
38718;BME280;24468;52.128;9.278;2022-09-09T14:12:41;99977.25;;;23.72;100.00
38718;BME280;24468;52.128;9.278;2022-09-09T14:15:09;99965.41;;;23.80;100.00
38718;BME280;24468;52.128;9.278;2022-09-09T14:17:37;99959.94;;;23.45;100.00
38718;BME280;24468;52.128;9.278;2022-09-09T14:20:04;99954.94;;;23.75;100.00
38718;BME280;24468;52.128;9.278;2022-09-09T14:22:35;99947.09;;;23.62;100.00
38718;BME280;24468;52.128;9.278;2022-09-09T14:25:01;99951.97;;;23.77;100.00
38718;BME280;24468;52.128;9.278;2022-09-09T14:27:27;99950.63;;;23.46;100.00
38718;BME280;24468;52.128;9.278;2022-09-09T14:29:52;99956.69;;;23.58;100.00
38718;BME280;24468;52.128;9.278;2022-09-09T14:32:18;99958.03;;;23.12;100.00
38718;BME280;24468;52.128;9.278;2022-09-09T14:34:44;99957.72;;;22.71;100.00
38718;BME280;24468;52.128;9.278;2022-09-09T14:37:10;99967.00;;;22.70;100.00
38718;BME280;24468;52.128;9.278;2022-09-09T14:39:36;99960.31;;;22.90;100.00
38718;BME280;24468;52.128;9.278;2022-09-09T14:42:01;99966.66;;;23.17;100.00
38718;BME280;24468;52.128;9.278;2022-09-09T14:44:28;99953.13;;;23.66;100.00
38718;BME280;24468;52.128;9.278;2022-09-09T14:46:53;99954.69;;;23.68;100.00
38718;BME280;24468;52.128;9.278;2022-09-09T14:49:19;99949.81;;;23.54;100.00
38718;BME280;24468;52.128;9.278;2022-09-09T14:51:45;99955.59;;;23.35;100.00
38718;BME280;24468;52.128;9.278;2022-09-09T14:54:11;99950.44;;;23.05;100.00